Meath Environmental Platform

Observations for Trim Market St

Time AQI Temp °C Hum % Pres Pa CO μg/m³ H₂S μg/m³ NO μg/m³ NO₂ μg/m³ O₃ μg/m³ SO₂ μg/m³ PM1 μg/m³ PM2.5 μg/m³ PM10 μg/m³
Friday 10 July 2026
04:57 1 16.9 80 2,147,483,647 0.09 0 0 5.81 11.96 0 6.41 9.19 14.34
04:55 1 16.9 80 2,147,483,647 0.07 0 0 4.22 3.93 0 6.41 8.72 14.35
04:54 1 16.9 80 2,147,483,647 0.08 0 0 9.03 22.6 0 7.13 10.15 14.35
04:49 1 16.9 79 2,147,483,647 0.09 0 0 3.07 14.59 0 4.99 7.81 12.1
04:47 1 16.9 79 2,147,483,647 0.09 0 0 5.59 13.09 0 6.41 7.82 11.53
04:43 1 16.9 79 2,147,483,647 0.09 0 0 4.02 11.41 0 6.41 8.31 13.26
04:42 1 16.9 79 2,147,483,647 0.07 0 0 2.43 13.66 0 5.7 7.84 13.27
04:40 1 17 79 80 0.08 0 0 10.32 25.34 0 3.56 6.9 12.13
04:39 1 17 79 1,303 0.09 0 0 7.23 15.13 0 7.13 10.7 15.58
04:38 1 17 79 2,284 0.08 0 0 3.83 13.46 0 6.41 8.8 12.71
04:37 1 17 79 3,012 0.08 0 0 2.93 14.23 0 6.41 8.8 14.43
04:35 1 17 79 4,381 0.09 0 0 4.24 13.69 0 3.56 7.39 10.99
04:33 1 17 79 5,631 0.09 0 0 4.84 10.96 0 5.7 8.33 13.29
04:31 1 17.1 78 6,854 0.07 0 0 2.62 13.72 0 7.13 10.71 15.02
04:28 1 17 78 7,484 0.09 0 0 3.85 10.06 0 7.13 7.87 12.14
04:27 1 17.1 78 7,975 0.1 0 1.19 7.63 9.21 0 4.99 7.87 13.3
04:25 1 17.1 78 9,263 0.06 0 0 3.54 9.76 0 4.99 5.98 9.26
04:20 1 17.1 78 11,599 0.08 0 0 5.36 9.84 0 6.41 11.68 16.78
04:13 1 17.1 78 13,983 0.07 0 0 5.98 16.13 0 5.7 7.42 11.01
04:12 1 17.2 78 14,537 0.08 0 0 9.86 21.79 0 5.7 8.38 13.33